Terminal Aerodrome Forecast
Issued by NWS

Home | Current Version | Previous Version | Text Only | Print | Product List | Glossary On
Versions: 1 2 3 4 5 6 7 8 9 10 11 12 13 14 15 16
966
FTUS43 KDLH 292333
TAFHYR
TAF
KHYR 292333Z 3000/3024 05007KT P6SM OVC200
     FM301400 05010G17KT P6SM VCSH OVC100
     FM301800 05012G19KT P6SM -RA OVC060=

USA.gov is the U.S. government's official web portal to all federal, state and local government web resources and services.